sensor_id;sensor_type;location;lat;lon;timestamp;P1;durP1;ratioP1;P2;durP2;ratioP2
71172;SDS011;58875;51.996;4.504;2022-08-01T00:01:44;6.66;;;6.56;;
71172;SDS011;58875;51.996;4.504;2022-08-01T00:04:10;5.98;;;5.90;;
71172;SDS011;58875;51.996;4.504;2022-08-01T00:06:35;5.69;;;5.62;;
71172;SDS011;58875;51.996;4.504;2022-08-01T00:09:01;5.52;;;5.48;;
71172;SDS011;58875;51.996;4.504;2022-08-01T00:11:26;6.87;;;6.76;;
71172;SDS011;58875;51.996;4.504;2022-08-01T00:13:52;6.28;;;6.21;;
71172;SDS011;58875;51.996;4.504;2022-08-01T00:16:18;5.85;;;5.80;;
71172;SDS011;58875;51.996;4.504;2022-08-01T00:18:47;5.07;;;4.99;;
71172;SDS011;58875;51.996;4.504;2022-08-01T00:21:14;4.82;;;4.72;;
71172;SDS011;58875;51.996;4.504;2022-08-01T00:23:40;5.10;;;4.99;;
71172;SDS011;58875;51.996;4.504;2022-08-01T00:26:06;5.37;;;5.26;;
71172;SDS011;58875;51.996;4.504;2022-08-01T00:28:31;5.25;;;5.17;;
71172;SDS011;58875;51.996;4.504;2022-08-01T00:30:57;5.16;;;5.10;;
71172;SDS011;58875;51.996;4.504;2022-08-01T00:33:22;5.37;;;5.26;;
71172;SDS011;58875;51.996;4.504;2022-08-01T00:35:48;5.31;;;5.19;;
71172;SDS011;58875;51.996;4.504;2022-08-01T00:38:13;5.34;;;5.20;;
71172;SDS011;58875;51.996;4.504;2022-08-01T00:40:38;5.56;;;5.39;;
71172;SDS011;58875;51.996;4.504;2022-08-01T00:43:04;5.11;;;5.01;;
71172;SDS011;58875;51.996;4.504;2022-08-01T00:45:30;5.22;;;5.13;;
71172;SDS011;58875;51.996;4.504;2022-08-01T00:47:55;5.31;;;5.19;;
71172;SDS011;58875;51.996;4.504;2022-08-01T00:50:21;5.94;;;5.75;;
71172;SDS011;58875;51.996;4.504;2022-08-01T00:52:46;5.24;;;5.16;;
71172;SDS011;58875;51.996;4.504;2022-08-01T00:55:13;5.33;;;5.23;;
71172;SDS011;58875;51.996;4.504;2022-08-01T00:57:40;5.15;;;5.00;;
71172;SDS011;58875;51.996;4.504;2022-08-01T01:00:06;5.15;;;5.02;;
71172;SDS011;58875;51.996;4.504;2022-08-01T01:02:33;4.67;;;4.52;;
71172;SDS011;58875;51.996;4.504;2022-08-01T01:05:00;4.34;;;4.24;;
71172;SDS011;58875;51.996;4.504;2022-08-01T01:07:30;4.39;;;4.28;;
71172;SDS011;58875;51.996;4.504;2022-08-01T01:10:17;3.71;;;3.58;;
71172;SDS011;58875;51.996;4.504;2022-08-01T01:12:59;3.37;;;3.29;;
71172;SDS011;58875;51.996;4.504;2022-08-01T01:15:40;2.42;;;2.33;;
71172;SDS011;58875;51.996;4.504;2022-08-01T01:18:08;2.46;;;2.35;;
71172;SDS011;58875;51.996;4.504;2022-08-01T01:20:46;2.19;;;2.12;;
71172;SDS011;58875;51.996;4.504;2022-08-01T01:32:42;2.02;;;2.01;;
71172;SDS011;58875;51.996;4.504;2022-08-01T01:34:42;2.05;;;2.05;;
71172;SDS011;58875;51.996;4.504;2022-08-01T01:37:12;2.08;;;2.08;;
71172;SDS011;58875;51.996;4.504;2022-08-01T01:39:44;2.21;;;2.21;;
71172;SDS011;58875;51.996;4.504;2022-08-01T01:42:14;2.09;;;2.09;;
71172;SDS011;58875;51.996;4.504;2022-08-01T01:44:43;2.41;;;2.41;;
71172;SDS011;58875;51.996;4.504;2022-08-01T01:47:13;2.69;;;2.69;;
71172;SDS011;58875;51.996;4.504;2022-08-01T01:49:41;2.70;;;2.70;;
71172;SDS011;58875;51.996;4.504;2022-08-01T01:52:10;2.75;;;2.74;;
71172;SDS011;58875;51.996;4.504;2022-08-01T01:54:40;2.71;;;2.68;;
71172;SDS011;58875;51.996;4.504;2022-08-01T01:57:11;2.35;;;2.35;;
71172;SDS011;58875;51.996;4.504;2022-08-01T01:59:39;2.57;;;2.57;;
71172;SDS011;58875;51.996;4.504;2022-08-01T02:02:07;2.53;;;2.52;;
71172;SDS011;58875;51.996;4.504;2022-08-01T02:04:36;2.46;;;2.46;;
71172;SDS011;58875;51.996;4.504;2022-08-01T02:07:05;2.47;;;2.47;;
71172;SDS011;58875;51.996;4.504;2022-08-01T02:09:34;2.76;;;2.76;;
71172;SDS011;58875;51.996;4.504;2022-08-01T02:12:02;2.91;;;2.91;;
71172;SDS011;58875;51.996;4.504;2022-08-01T02:14:31;2.83;;;2.83;;
71172;SDS011;58875;51.996;4.504;2022-08-01T02:17:02;2.85;;;2.85;;
71172;SDS011;58875;51.996;4.504;2022-08-01T02:19:34;2.73;;;2.73;;
71172;SDS011;58875;51.996;4.504;2022-08-01T02:22:00;3.12;;;3.11;;
71172;SDS011;58875;51.996;4.504;2022-08-01T02:25:06;3.13;;;3.09;;
71172;SDS011;58875;51.996;4.504;2022-08-01T02:27:42;3.01;;;3.01;;
71172;SDS011;58875;51.996;4.504;2022-08-01T02:30:15;3.05;;;3.05;;
71172;SDS011;58875;51.996;4.504;2022-08-01T02:32:43;3.09;;;3.09;;
71172;SDS011;58875;51.996;4.504;2022-08-01T02:35:18;3.34;;;3.34;;
71172;SDS011;58875;51.996;4.504;2022-08-01T02:37:57;3.53;;;3.53;;
71172;SDS011;58875;51.996;4.504;2022-08-01T02:40:26;3.99;;;3.99;;
71172;SDS011;58875;51.996;4.504;2022-08-01T02:42:54;3.92;;;3.92;;
71172;SDS011;58875;51.996;4.504;2022-08-01T02:45:24;4.22;;;4.22;;
71172;SDS011;58875;51.996;4.504;2022-08-01T02:47:51;3.99;;;3.99;;
71172;SDS011;58875;51.996;4.504;2022-08-01T02:50:21;4.17;;;4.16;;
71172;SDS011;58875;51.996;4.504;2022-08-01T02:52:50;4.32;;;4.32;;
71172;SDS011;58875;51.996;4.504;2022-08-01T02:55:19;3.99;;;3.99;;
71172;SDS011;58875;51.996;4.504;2022-08-01T02:57:45;3.83;;;3.83;;
71172;SDS011;58875;51.996;4.504;2022-08-01T03:00:15;4.18;;;4.18;;
71172;SDS011;58875;51.996;4.504;2022-08-01T03:02:42;3.70;;;3.69;;
71172;SDS011;58875;51.996;4.504;2022-08-01T03:05:11;3.57;;;3.57;;
71172;SDS011;58875;51.996;4.504;2022-08-01T03:07:39;3.24;;;3.24;;
71172;SDS011;58875;51.996;4.504;2022-08-01T03:10:06;3.10;;;3.10;;
71172;SDS011;58875;51.996;4.504;2022-08-01T03:12:35;3.21;;;3.20;;
71172;SDS011;58875;51.996;4.504;2022-08-01T03:15:04;3.29;;;3.27;;
71172;SDS011;58875;51.996;4.504;2022-08-01T03:17:31;2.76;;;2.75;;
71172;SDS011;58875;51.996;4.504;2022-08-01T03:20:01;2.76;;;2.74;;
71172;SDS011;58875;51.996;4.504;2022-08-01T03:22:29;2.72;;;2.72;;
71172;SDS011;58875;51.996;4.504;2022-08-01T03:24:58;2.64;;;2.64;;
71172;SDS011;58875;51.996;4.504;2022-08-01T03:27:28;2.80;;;2.80;;
71172;SDS011;58875;51.996;4.504;2022-08-01T03:29:55;2.69;;;2.69;;
71172;SDS011;58875;51.996;4.504;2022-08-01T03:32:23;2.59;;;2.59;;
71172;SDS011;58875;51.996;4.504;2022-08-01T03:34:52;2.28;;;2.28;;
71172;SDS011;58875;51.996;4.504;2022-08-01T03:37:25;2.17;;;2.17;;
71172;SDS011;58875;51.996;4.504;2022-08-01T03:42:23;2.10;;;2.09;;
71172;SDS011;58875;51.996;4.504;2022-08-01T03:44:57;1.82;;;1.82;;
71172;SDS011;58875;51.996;4.504;2022-08-01T03:47:34;1.70;;;1.69;;
71172;SDS011;58875;51.996;4.504;2022-08-01T03:50:02;1.68;;;1.68;;
71172;SDS011;58875;51.996;4.504;2022-08-01T03:52:31;1.73;;;1.71;;
71172;SDS011;58875;51.996;4.504;2022-08-01T03:55:01;1.58;;;1.57;;
71172;SDS011;58875;51.996;4.504;2022-08-01T03:57:32;1.52;;;1.52;;
71172;SDS011;58875;51.996;4.504;2022-08-01T03:59:58;1.63;;;1.63;;
71172;SDS011;58875;51.996;4.504;2022-08-01T04:02:28;1.59;;;1.59;;
71172;SDS011;58875;51.996;4.504;2022-08-01T04:04:54;1.69;;;1.69;;
71172;SDS011;58875;51.996;4.504;2022-08-01T04:07:25;1.70;;;1.70;;
71172;SDS011;58875;51.996;4.504;2022-08-01T04:09:53;1.76;;;1.76;;
71172;SDS011;58875;51.996;4.504;2022-08-01T04:12:19;1.83;;;1.83;;
71172;SDS011;58875;51.996;4.504;2022-08-01T04:14:45;1.87;;;1.87;;
71172;SDS011;58875;51.996;4.504;2022-08-01T04:17:11;1.94;;;1.94;;
71172;SDS011;58875;51.996;4.504;2022-08-01T04:19:37;1.94;;;1.94;;
71172;SDS011;58875;51.996;4.504;2022-08-01T04:22:03;2.06;;;2.06;;
71172;SDS011;58875;51.996;4.504;2022-08-01T04:24:29;1.95;;;1.95;;
71172;SDS011;58875;51.996;4.504;2022-08-01T04:26:59;1.95;;;1.95;;
71172;SDS011;58875;51.996;4.504;2022-08-01T04:29:26;1.88;;;1.88;;
71172;SDS011;58875;51.996;4.504;2022-08-01T04:31:55;1.94;;;1.94;;
71172;SDS011;58875;51.996;4.504;2022-08-01T04:34:25;1.94;;;1.94;;
71172;SDS011;58875;51.996;4.504;2022-08-01T04:36:56;1.87;;;1.87;;
71172;SDS011;58875;51.996;4.504;2022-08-01T04:39:24;1.90;;;1.90;;
71172;SDS011;58875;51.996;4.504;2022-08-01T04:41:56;2.02;;;2.02;;
71172;SDS011;58875;51.996;4.504;2022-08-01T04:44:25;1.97;;;1.97;;
71172;SDS011;58875;51.996;4.504;2022-08-01T04:46:52;2.15;;;2.15;;
71172;SDS011;58875;51.996;4.504;2022-08-01T04:49:20;2.08;;;2.08;;
71172;SDS011;58875;51.996;4.504;2022-08-01T04:51:52;2.06;;;2.06;;
71172;SDS011;58875;51.996;4.504;2022-08-01T04:54:29;1.89;;;1.89;;
71172;SDS011;58875;51.996;4.504;2022-08-01T04:56:58;1.91;;;1.91;;
71172;SDS011;58875;51.996;4.504;2022-08-01T04:59:28;2.20;;;2.20;;
71172;SDS011;58875;51.996;4.504;2022-08-01T05:02:07;2.06;;;2.06;;
71172;SDS011;58875;51.996;4.504;2022-08-01T05:04:38;2.10;;;2.10;;
71172;SDS011;58875;51.996;4.504;2022-08-01T05:07:05;2.35;;;2.35;;
71172;SDS011;58875;51.996;4.504;2022-08-01T05:09:31;2.18;;;2.18;;
71172;SDS011;58875;51.996;4.504;2022-08-01T05:11:58;2.25;;;2.25;;
71172;SDS011;58875;51.996;4.504;2022-08-01T05:14:25;2.15;;;2.15;;
71172;SDS011;58875;51.996;4.504;2022-08-01T05:16:51;1.98;;;1.98;;
71172;SDS011;58875;51.996;4.504;2022-08-01T05:19:17;2.25;;;2.25;;
71172;SDS011;58875;51.996;4.504;2022-08-01T05:21:42;2.07;;;2.07;;
71172;SDS011;58875;51.996;4.504;2022-08-01T05:24:08;2.07;;;2.07;;
71172;SDS011;58875;51.996;4.504;2022-08-01T05:26:33;2.07;;;2.07;;
71172;SDS011;58875;51.996;4.504;2022-08-01T05:28:59;1.95;;;1.95;;
71172;SDS011;58875;51.996;4.504;2022-08-01T05:31:25;1.87;;;1.87;;
71172;SDS011;58875;51.996;4.504;2022-08-01T05:33:51;2.06;;;2.06;;
71172;SDS011;58875;51.996;4.504;2022-08-01T05:36:16;2.21;;;2.21;;
71172;SDS011;58875;51.996;4.504;2022-08-01T05:38:42;2.21;;;2.21;;
71172;SDS011;58875;51.996;4.504;2022-08-01T05:41:07;2.14;;;2.14;;
71172;SDS011;58875;51.996;4.504;2022-08-01T05:43:33;2.07;;;2.07;;
71172;SDS011;58875;51.996;4.504;2022-08-01T05:45:59;2.30;;;2.30;;
71172;SDS011;58875;51.996;4.504;2022-08-01T05:48:26;2.35;;;2.35;;
71172;SDS011;58875;51.996;4.504;2022-08-01T05:50:51;2.17;;;2.17;;
71172;SDS011;58875;51.996;4.504;2022-08-01T05:53:17;2.07;;;2.07;;
71172;SDS011;58875;51.996;4.504;2022-08-01T05:55:42;2.20;;;2.20;;
71172;SDS011;58875;51.996;4.504;2022-08-01T05:58:07;2.22;;;2.22;;
71172;SDS011;58875;51.996;4.504;2022-08-01T06:00:33;2.32;;;2.32;;
71172;SDS011;58875;51.996;4.504;2022-08-01T06:02:59;2.38;;;2.38;;
71172;SDS011;58875;51.996;4.504;2022-08-01T06:05:24;2.33;;;2.33;;
71172;SDS011;58875;51.996;4.504;2022-08-01T06:07:50;2.61;;;2.61;;
71172;SDS011;58875;51.996;4.504;2022-08-01T06:10:15;2.80;;;2.76;;
71172;SDS011;58875;51.996;4.504;2022-08-01T06:12:41;2.77;;;2.77;;
71172;SDS011;58875;51.996;4.504;2022-08-01T06:15:07;2.85;;;2.85;;
71172;SDS011;58875;51.996;4.504;2022-08-01T06:17:33;2.80;;;2.80;;
71172;SDS011;58875;51.996;4.504;2022-08-01T06:20:02;2.97;;;2.97;;
71172;SDS011;58875;51.996;4.504;2022-08-01T06:22:29;2.76;;;2.76;;
71172;SDS011;58875;51.996;4.504;2022-08-01T06:24:54;3.33;;;3.33;;
71172;SDS011;58875;51.996;4.504;2022-08-01T06:27:20;3.50;;;3.50;;
71172;SDS011;58875;51.996;4.504;2022-08-01T06:29:46;3.67;;;3.67;;
71172;SDS011;58875;51.996;4.504;2022-08-01T06:32:12;3.79;;;3.79;;
71172;SDS011;58875;51.996;4.504;2022-08-01T06:34:37;3.88;;;3.88;;
71172;SDS011;58875;51.996;4.504;2022-08-01T06:37:02;3.52;;;3.52;;
71172;SDS011;58875;51.996;4.504;2022-08-01T06:39:28;3.45;;;3.45;;
71172;SDS011;58875;51.996;4.504;2022-08-01T06:41:53;3.67;;;3.67;;
71172;SDS011;58875;51.996;4.504;2022-08-01T06:44:19;3.68;;;3.68;;
71172;SDS011;58875;51.996;4.504;2022-08-01T06:46:44;4.01;;;4.01;;
71172;SDS011;58875;51.996;4.504;2022-08-01T06:49:10;4.07;;;4.07;;
71172;SDS011;58875;51.996;4.504;2022-08-01T06:51:35;4.28;;;4.28;;
71172;SDS011;58875;51.996;4.504;2022-08-01T06:54:01;4.46;;;4.45;;
71172;SDS011;58875;51.996;4.504;2022-08-01T06:56:26;4.10;;;4.10;;
71172;SDS011;58875;51.996;4.504;2022-08-01T06:58:52;4.38;;;4.38;;
71172;SDS011;58875;51.996;4.504;2022-08-01T07:01:17;4.43;;;4.43;;
71172;SDS011;58875;51.996;4.504;2022-08-01T07:03:43;4.91;;;4.91;;
71172;SDS011;58875;51.996;4.504;2022-08-01T07:06:09;5.23;;;5.23;;
71172;SDS011;58875;51.996;4.504;2022-08-01T07:08:34;5.23;;;5.23;;
71172;SDS011;58875;51.996;4.504;2022-08-01T07:11:00;5.12;;;5.12;;
71172;SDS011;58875;51.996;4.504;2022-08-01T07:13:26;5.41;;;5.41;;
71172;SDS011;58875;51.996;4.504;2022-08-01T07:15:52;5.53;;;5.53;;
71172;SDS011;58875;51.996;4.504;2022-08-01T07:18:20;5.50;;;5.50;;
71172;SDS011;58875;51.996;4.504;2022-08-01T07:20:46;5.62;;;5.62;;
71172;SDS011;58875;51.996;4.504;2022-08-01T07:23:12;5.70;;;5.70;;
71172;SDS011;58875;51.996;4.504;2022-08-01T07:25:38;5.84;;;5.84;;
71172;SDS011;58875;51.996;4.504;2022-08-01T07:28:04;5.77;;;5.77;;
71172;SDS011;58875;51.996;4.504;2022-08-01T07:30:29;5.93;;;5.93;;
71172;SDS011;58875;51.996;4.504;2022-08-01T07:32:56;5.81;;;5.81;;
71172;SDS011;58875;51.996;4.504;2022-08-01T07:35:22;5.82;;;5.81;;
71172;SDS011;58875;51.996;4.504;2022-08-01T07:37:47;5.86;;;5.86;;
71172;SDS011;58875;51.996;4.504;2022-08-01T07:40:13;6.01;;;6.01;;
71172;SDS011;58875;51.996;4.504;2022-08-01T07:42:39;6.12;;;6.11;;
71172;SDS011;58875;51.996;4.504;2022-08-01T07:45:08;5.81;;;5.77;;
71172;SDS011;58875;51.996;4.504;2022-08-01T07:47:35;6.01;;;5.96;;
71172;SDS011;58875;51.996;4.504;2022-08-01T07:50:00;6.44;;;6.35;;
71172;SDS011;58875;51.996;4.504;2022-08-01T07:52:28;6.11;;;6.09;;
71172;SDS011;58875;51.996;4.504;2022-08-01T07:54:55;5.88;;;5.88;;
71172;SDS011;58875;51.996;4.504;2022-08-01T07:57:22;5.94;;;5.93;;
71172;SDS011;58875;51.996;4.504;2022-08-01T07:59:48;5.88;;;5.88;;
71172;SDS011;58875;51.996;4.504;2022-08-01T08:02:14;5.29;;;5.29;;
71172;SDS011;58875;51.996;4.504;2022-08-01T08:04:40;5.61;;;5.60;;
71172;SDS011;58875;51.996;4.504;2022-08-01T08:07:06;5.38;;;5.38;;
71172;SDS011;58875;51.996;4.504;2022-08-01T08:09:31;5.31;;;5.30;;
71172;SDS011;58875;51.996;4.504;2022-08-01T08:11:57;5.27;;;5.27;;
71172;SDS011;58875;51.996;4.504;2022-08-01T08:14:22;5.28;;;5.25;;
71172;SDS011;58875;51.996;4.504;2022-08-01T08:16:49;5.53;;;5.37;;
71172;SDS011;58875;51.996;4.504;2022-08-01T08:19:14;5.61;;;5.48;;
71172;SDS011;58875;51.996;4.504;2022-08-01T08:21:40;5.11;;;5.03;;
71172;SDS011;58875;51.996;4.504;2022-08-01T08:24:07;5.16;;;5.12;;
71172;SDS011;58875;51.996;4.504;2022-08-01T08:26:55;4.94;;;4.94;;
71172;SDS011;58875;51.996;4.504;2022-08-01T08:29:22;4.35;;;4.35;;
71172;SDS011;58875;51.996;4.504;2022-08-01T08:31:51;4.92;;;4.90;;
71172;SDS011;58875;51.996;4.504;2022-08-01T08:34:17;5.07;;;5.01;;
71172;SDS011;58875;51.996;4.504;2022-08-01T08:36:43;5.17;;;5.11;;
71172;SDS011;58875;51.996;4.504;2022-08-01T08:39:09;5.11;;;5.03;;
71172;SDS011;58875;51.996;4.504;2022-08-01T08:41:35;4.55;;;4.55;;
71172;SDS011;58875;51.996;4.504;2022-08-01T08:44:05;4.35;;;4.35;;
71172;SDS011;58875;51.996;4.504;2022-08-01T08:46:33;4.05;;;4.05;;
71172;SDS011;58875;51.996;4.504;2022-08-01T08:49:00;4.07;;;4.07;;
71172;SDS011;58875;51.996;4.504;2022-08-01T08:51:30;4.55;;;4.49;;
71172;SDS011;58875;51.996;4.504;2022-08-01T08:53:58;4.43;;;4.36;;
71172;SDS011;58875;51.996;4.504;2022-08-01T08:56:27;4.49;;;4.48;;
71172;SDS011;58875;51.996;4.504;2022-08-01T08:58:58;4.04;;;3.98;;
71172;SDS011;58875;51.996;4.504;2022-08-01T09:01:24;4.45;;;4.43;;
71172;SDS011;58875;51.996;4.504;2022-08-01T09:03:50;4.33;;;4.33;;
71172;SDS011;58875;51.996;4.504;2022-08-01T09:06:16;4.13;;;4.13;;
71172;SDS011;58875;51.996;4.504;2022-08-01T09:08:42;4.14;;;4.14;;
71172;SDS011;58875;51.996;4.504;2022-08-01T09:11:07;3.87;;;3.87;;
71172;SDS011;58875;51.996;4.504;2022-08-01T09:13:35;3.79;;;3.79;;
71172;SDS011;58875;51.996;4.504;2022-08-01T09:16:01;3.56;;;3.56;;
71172;SDS011;58875;51.996;4.504;2022-08-01T09:18:29;3.59;;;3.59;;
71172;SDS011;58875;51.996;4.504;2022-08-01T09:23:38;3.05;;;3.05;;
71172;SDS011;58875;51.996;4.504;2022-08-01T09:26:15;2.91;;;2.90;;
71172;SDS011;58875;51.996;4.504;2022-08-01T09:28:42;3.02;;;3.02;;
71172;SDS011;58875;51.996;4.504;2022-08-01T09:31:15;3.17;;;3.17;;
71172;SDS011;58875;51.996;4.504;2022-08-01T09:33:47;3.39;;;3.39;;
71172;SDS011;58875;51.996;4.504;2022-08-01T09:36:14;3.57;;;3.54;;
71172;SDS011;58875;51.996;4.504;2022-08-01T09:38:39;3.65;;;3.65;;
71172;SDS011;58875;51.996;4.504;2022-08-01T09:41:07;3.56;;;3.56;;
71172;SDS011;58875;51.996;4.504;2022-08-01T09:43:33;3.50;;;3.50;;
71172;SDS011;58875;51.996;4.504;2022-08-01T09:46:04;3.26;;;3.26;;
71172;SDS011;58875;51.996;4.504;2022-08-01T09:48:37;3.28;;;3.28;;
71172;SDS011;58875;51.996;4.504;2022-08-01T09:51:07;3.30;;;3.30;;
71172;SDS011;58875;51.996;4.504;2022-08-01T09:53:42;3.34;;;3.34;;
71172;SDS011;58875;51.996;4.504;2022-08-01T09:56:09;3.43;;;3.43;;
71172;SDS011;58875;51.996;4.504;2022-08-01T10:01:20;3.69;;;3.69;;
71172;SDS011;58875;51.996;4.504;2022-08-01T10:03:47;3.30;;;3.30;;
71172;SDS011;58875;51.996;4.504;2022-08-01T10:06:35;3.09;;;3.04;;
71172;SDS011;58875;51.996;4.504;2022-08-01T10:09:01;2.63;;;2.62;;
71172;SDS011;58875;51.996;4.504;2022-08-01T10:11:28;2.68;;;2.68;;
71172;SDS011;58875;51.996;4.504;2022-08-01T10:13:55;2.73;;;2.73;;
71172;SDS011;58875;51.996;4.504;2022-08-01T10:16:24;2.85;;;2.84;;
71172;SDS011;58875;51.996;4.504;2022-08-01T10:18:53;3.04;;;3.04;;
71172;SDS011;58875;51.996;4.504;2022-08-01T10:21:20;3.21;;;3.21;;
71172;SDS011;58875;51.996;4.504;2022-08-01T10:23:53;3.41;;;3.41;;
71172;SDS011;58875;51.996;4.504;2022-08-01T10:26:21;3.50;;;3.50;;
71172;SDS011;58875;51.996;4.504;2022-08-01T10:28:51;3.31;;;3.31;;
71172;SDS011;58875;51.996;4.504;2022-08-01T10:31:18;3.16;;;3.16;;
71172;SDS011;58875;51.996;4.504;2022-08-01T10:33:45;2.78;;;2.78;;
71172;SDS011;58875;51.996;4.504;2022-08-01T10:36:10;2.81;;;2.81;;
71172;SDS011;58875;51.996;4.504;2022-08-01T10:38:37;2.63;;;2.63;;
71172;SDS011;58875;51.996;4.504;2022-08-01T10:41:04;2.58;;;2.58;;
71172;SDS011;58875;51.996;4.504;2022-08-01T10:43:31;2.55;;;2.55;;
71172;SDS011;58875;51.996;4.504;2022-08-01T10:45:57;2.44;;;2.44;;
71172;SDS011;58875;51.996;4.504;2022-08-01T10:51:08;2.15;;;2.15;;
71172;SDS011;58875;51.996;4.504;2022-08-01T10:53:34;2.17;;;2.17;;
71172;SDS011;58875;51.996;4.504;2022-08-01T10:56:01;2.30;;;2.30;;
71172;SDS011;58875;51.996;4.504;2022-08-01T10:58:33;2.37;;;2.37;;
71172;SDS011;58875;51.996;4.504;2022-08-01T11:03:44;2.84;;;2.84;;
71172;SDS011;58875;51.996;4.504;2022-08-01T11:20:12;2.85;;;2.85;;
71172;SDS011;58875;51.996;4.504;2022-08-01T11:23:21;3.18;;;3.18;;
71172;SDS011;58875;51.996;4.504;2022-08-01T11:30:48;3.28;;;3.28;;
71172;SDS011;58875;51.996;4.504;2022-08-01T11:33:17;3.30;;;3.30;;
71172;SDS011;58875;51.996;4.504;2022-08-01T11:38:35;2.98;;;2.98;;
71172;SDS011;58875;51.996;4.504;2022-08-01T11:43:34;2.69;;;2.69;;
71172;SDS011;58875;51.996;4.504;2022-08-01T11:46:00;2.64;;;2.64;;
71172;SDS011;58875;51.996;4.504;2022-08-01T11:48:29;2.67;;;2.67;;
71172;SDS011;58875;51.996;4.504;2022-08-01T11:50:55;2.92;;;2.92;;
71172;SDS011;58875;51.996;4.504;2022-08-01T11:53:22;2.46;;;2.46;;
71172;SDS011;58875;51.996;4.504;2022-08-01T11:55:49;2.54;;;2.54;;
71172;SDS011;58875;51.996;4.504;2022-08-01T11:58:20;1.99;;;1.99;;
71172;SDS011;58875;51.996;4.504;2022-08-01T12:00:52;2.31;;;2.31;;
71172;SDS011;58875;51.996;4.504;2022-08-01T12:03:25;2.21;;;2.21;;
71172;SDS011;58875;51.996;4.504;2022-08-01T12:05:57;2.18;;;2.18;;
71172;SDS011;58875;51.996;4.504;2022-08-01T12:08:27;2.20;;;2.20;;
71172;SDS011;58875;51.996;4.504;2022-08-01T12:10:55;1.99;;;1.99;;
71172;SDS011;58875;51.996;4.504;2022-08-01T12:13:21;2.06;;;2.06;;
71172;SDS011;58875;51.996;4.504;2022-08-01T12:15:47;2.01;;;2.01;;
71172;SDS011;58875;51.996;4.504;2022-08-01T12:18:15;1.96;;;1.96;;
71172;SDS011;58875;51.996;4.504;2022-08-01T12:20:42;1.78;;;1.78;;
71172;SDS011;58875;51.996;4.504;2022-08-01T12:23:10;1.80;;;1.80;;
71172;SDS011;58875;51.996;4.504;2022-08-01T12:25:40;2.03;;;2.03;;
71172;SDS011;58875;51.996;4.504;2022-08-01T12:28:09;1.95;;;1.95;;
71172;SDS011;58875;51.996;4.504;2022-08-01T12:30:39;2.08;;;2.08;;
71172;SDS011;58875;51.996;4.504;2022-08-01T12:33:06;2.18;;;2.18;;
71172;SDS011;58875;51.996;4.504;2022-08-01T12:35:35;2.28;;;2.28;;
71172;SDS011;58875;51.996;4.504;2022-08-01T12:38:04;2.26;;;2.26;;
71172;SDS011;58875;51.996;4.504;2022-08-01T12:40:36;2.42;;;2.42;;
71172;SDS011;58875;51.996;4.504;2022-08-01T12:43:07;2.27;;;2.26;;
71172;SDS011;58875;51.996;4.504;2022-08-01T12:45:42;2.00;;;1.99;;
71172;SDS011;58875;51.996;4.504;2022-08-01T12:48:12;2.09;;;2.09;;
71172;SDS011;58875;51.996;4.504;2022-08-01T12:50:49;2.01;;;2.01;;
71172;SDS011;58875;51.996;4.504;2022-08-01T12:53:17;1.91;;;1.91;;
71172;SDS011;58875;51.996;4.504;2022-08-01T12:55:44;1.98;;;1.98;;
71172;SDS011;58875;51.996;4.504;2022-08-01T12:58:18;2.08;;;2.08;;
71172;SDS011;58875;51.996;4.504;2022-08-01T13:00:46;2.13;;;2.13;;
71172;SDS011;58875;51.996;4.504;2022-08-01T13:03:17;1.92;;;1.92;;
71172;SDS011;58875;51.996;4.504;2022-08-01T13:05:49;2.02;;;2.02;;
71172;SDS011;58875;51.996;4.504;2022-08-01T13:08:16;2.13;;;2.13;;
71172;SDS011;58875;51.996;4.504;2022-08-01T13:10:44;2.15;;;2.15;;
71172;SDS011;58875;51.996;4.504;2022-08-01T13:13:11;2.10;;;2.10;;
71172;SDS011;58875;51.996;4.504;2022-08-01T13:15:38;1.83;;;1.83;;
71172;SDS011;58875;51.996;4.504;2022-08-01T13:18:28;1.89;;;1.89;;
71172;SDS011;58875;51.996;4.504;2022-08-01T13:23:41;2.21;;;2.21;;
71172;SDS011;58875;51.996;4.504;2022-08-01T13:29:04;2.36;;;2.36;;
71172;SDS011;58875;51.996;4.504;2022-08-01T13:31:34;2.32;;;2.32;;
71172;SDS011;58875;51.996;4.504;2022-08-01T13:34:03;2.34;;;2.34;;
71172;SDS011;58875;51.996;4.504;2022-08-01T13:36:30;2.39;;;2.39;;
71172;SDS011;58875;51.996;4.504;2022-08-01T13:38:56;2.32;;;2.32;;
71172;SDS011;58875;51.996;4.504;2022-08-01T13:41:41;2.22;;;2.22;;
71172;SDS011;58875;51.996;4.504;2022-08-01T13:44:07;1.99;;;1.99;;
71172;SDS011;58875;51.996;4.504;2022-08-01T13:46:36;2.26;;;2.26;;
71172;SDS011;58875;51.996;4.504;2022-08-01T13:49:04;1.98;;;1.98;;
71172;SDS011;58875;51.996;4.504;2022-08-01T13:51:33;2.05;;;2.05;;
71172;SDS011;58875;51.996;4.504;2022-08-01T13:54:00;2.29;;;2.29;;
71172;SDS011;58875;51.996;4.504;2022-08-01T13:56:32;2.36;;;2.36;;
71172;SDS011;58875;51.996;4.504;2022-08-01T13:58:58;2.21;;;2.21;;
71172;SDS011;58875;51.996;4.504;2022-08-01T14:01:24;2.23;;;2.23;;
71172;SDS011;58875;51.996;4.504;2022-08-01T14:03:53;2.00;;;2.00;;
71172;SDS011;58875;51.996;4.504;2022-08-01T14:06:21;2.05;;;2.05;;
71172;SDS011;58875;51.996;4.504;2022-08-01T14:08:47;2.27;;;2.27;;
71172;SDS011;58875;51.996;4.504;2022-08-01T14:11:14;2.16;;;2.16;;
71172;SDS011;58875;51.996;4.504;2022-08-01T14:13:40;2.34;;;2.34;;
71172;SDS011;58875;51.996;4.504;2022-08-01T14:16:06;2.01;;;2.01;;
71172;SDS011;58875;51.996;4.504;2022-08-01T14:18:32;2.16;;;2.16;;
71172;SDS011;58875;51.996;4.504;2022-08-01T14:20:58;2.36;;;2.36;;
71172;SDS011;58875;51.996;4.504;2022-08-01T14:23:24;2.37;;;2.37;;
71172;SDS011;58875;51.996;4.504;2022-08-01T14:25:51;2.32;;;2.32;;
71172;SDS011;58875;51.996;4.504;2022-08-01T14:28:21;2.42;;;2.42;;
71172;SDS011;58875;51.996;4.504;2022-08-01T14:30:52;2.28;;;2.28;;
71172;SDS011;58875;51.996;4.504;2022-08-01T14:33:21;2.43;;;2.43;;
71172;SDS011;58875;51.996;4.504;2022-08-01T14:35:50;2.42;;;2.42;;
71172;SDS011;58875;51.996;4.504;2022-08-01T14:38:15;2.15;;;2.15;;
71172;SDS011;58875;51.996;4.504;2022-08-01T14:40:41;2.06;;;2.06;;
71172;SDS011;58875;51.996;4.504;2022-08-01T14:43:08;2.09;;;2.09;;
71172;SDS011;58875;51.996;4.504;2022-08-01T14:45:34;2.30;;;2.30;;
71172;SDS011;58875;51.996;4.504;2022-08-01T14:48:00;2.49;;;2.49;;
71172;SDS011;58875;51.996;4.504;2022-08-01T14:50:25;2.22;;;2.22;;
71172;SDS011;58875;51.996;4.504;2022-08-01T14:52:52;2.45;;;2.45;;
71172;SDS011;58875;51.996;4.504;2022-08-01T14:55:18;2.61;;;2.61;;
71172;SDS011;58875;51.996;4.504;2022-08-01T14:57:48;2.40;;;2.40;;
71172;SDS011;58875;51.996;4.504;2022-08-01T15:00:15;2.43;;;2.43;;
71172;SDS011;58875;51.996;4.504;2022-08-01T15:02:41;2.32;;;2.32;;
71172;SDS011;58875;51.996;4.504;2022-08-01T15:05:07;2.41;;;2.41;;
71172;SDS011;58875;51.996;4.504;2022-08-01T15:07:34;2.32;;;2.32;;
71172;SDS011;58875;51.996;4.504;2022-08-01T15:10:00;2.29;;;2.29;;
71172;SDS011;58875;51.996;4.504;2022-08-01T15:12:26;2.59;;;2.59;;
71172;SDS011;58875;51.996;4.504;2022-08-01T15:14:52;2.45;;;2.45;;
71172;SDS011;58875;51.996;4.504;2022-08-01T15:17:22;2.44;;;2.44;;
71172;SDS011;58875;51.996;4.504;2022-08-01T15:19:53;2.46;;;2.46;;
71172;SDS011;58875;51.996;4.504;2022-08-01T15:22:21;2.33;;;2.33;;
71172;SDS011;58875;51.996;4.504;2022-08-01T15:24:48;2.20;;;2.20;;
71172;SDS011;58875;51.996;4.504;2022-08-01T15:27:18;2.36;;;2.36;;
71172;SDS011;58875;51.996;4.504;2022-08-01T15:29:46;2.26;;;2.26;;
71172;SDS011;58875;51.996;4.504;2022-08-01T15:32:13;2.56;;;2.56;;
71172;SDS011;58875;51.996;4.504;2022-08-01T15:34:39;2.41;;;2.41;;
71172;SDS011;58875;51.996;4.504;2022-08-01T15:37:06;2.46;;;2.46;;
71172;SDS011;58875;51.996;4.504;2022-08-01T15:39:36;2.41;;;2.41;;
71172;SDS011;58875;51.996;4.504;2022-08-01T15:42:04;2.32;;;2.32;;
71172;SDS011;58875;51.996;4.504;2022-08-01T15:44:32;2.31;;;2.31;;
71172;SDS011;58875;51.996;4.504;2022-08-01T15:46:59;2.30;;;2.30;;